Time;durP1;ratioP1;P1;durP2;ratioP2;P2;SDS_P1;SDS_P2;PMS_P1;PMS_P2;Temp;Humidity;BMP_temperature;BMP_pressure;BME280_temperature;BME280_humidity;BME280_pressure;Samples;Min_cycle;Max_cycle;Signal;HPM_P1;HPM_P2
2022/10/23 00:01:25;;;;;;;11.65;5.50;;;;;;;;;;5034225;28;20132;-82
2022/10/23 00:03:53;;;;;;;15.82;6.22;;;;;;;;;;5033857;28;20436;-81
2022/10/23 00:06:20;;;;;;;16.83;6.57;;;;;;;;;;5034807;28;20045;-81
2022/10/23 00:08:48;;;;;;;13.82;6.53;;;;;;;;;;5034737;28;20067;-81
2022/10/23 00:11:16;;;;;;;14.32;6.72;;;;;;;;;;5034750;28;20050;-81
2022/10/23 00:13:44;;;;;;;11.95;7.22;;;;;;;;;;5033576;28;20045;-82
2022/10/23 00:16:11;;;;;;;14.20;7.40;;;;;;;;;;5034663;28;20449;-81
2022/10/23 00:18:39;;;;;;;14.85;8.13;;;;;;;;;;5033337;28;20045;-81
2022/10/23 00:21:07;;;;;;;13.57;7.53;;;;;;;;;;5033318;28;20053;-81
2022/10/23 00:23:34;;;;;;;16.67;6.88;;;;;;;;;;5033090;28;20522;-82
2022/10/23 00:26:01;;;;;;;24.55;8.52;;;;;;;;;;5033229;28;20488;-81
2022/10/23 00:28:29;;;;;;;16.35;7.13;;;;;;;;;;5033581;28;20052;-82
2022/10/23 00:30:56;;;;;;;14.15;7.50;;;;;;;;;;5033524;28;20128;-82
2022/10/23 00:33:23;;;;;;;11.05;7.07;;;;;;;;;;5033186;28;20049;-80
2022/10/23 00:35:50;;;;;;;11.20;6.70;;;;;;;;;;5033102;28;20053;-82
2022/10/23 00:38:17;;;;;;;8.65;5.93;;;;;;;;;;5033603;28;20049;-82
2022/10/23 00:40:45;;;;;;;10.63;5.80;;;;;;;;;;5034619;28;20057;-81
2022/10/23 00:43:17;;;;;;;14.60;6.85;;;;;;;;;;5033048;28;20423;-82
2022/10/23 00:45:44;;;;;;;8.68;6.15;;;;;;;;;;5032983;28;20045;-82
2022/10/23 00:48:12;;;;;;;10.50;5.97;;;;;;;;;;5034931;28;20045;-83
2022/10/23 00:50:39;;;;;;;11.00;5.95;;;;;;;;;;5035931;28;20405;-82
2022/10/23 00:53:07;;;;;;;12.73;6.13;;;;;;;;;;5034495;28;20515;-81
2022/10/23 00:55:37;;;;;;;10.38;6.15;;;;;;;;;;5035139;28;20054;-81
2022/10/23 00:58:04;;;;;;;10.35;5.72;;;;;;;;;;5034182;28;20127;-80
2022/10/23 01:00:41;;;;;;;8.05;5.60;;;;;;;;;;5033608;28;20123;-80
2022/10/23 01:03:08;;;;;;;9.43;6.55;;;;;;;;;;5032749;28;20053;-81
2022/10/23 01:05:45;;;;;;;10.02;6.10;;;;;;;;;;5033968;28;20046;-81
2022/10/23 01:08:17;;;;;;;12.05;5.32;;;;;;;;;;5032861;28;20051;-82
2022/10/23 01:10:46;;;;;;;8.60;6.05;;;;;;;;;;5032547;28;20045;-81
2022/10/23 01:13:32;;;;;;;8.82;5.38;;;;;;;;;;5032969;28;20045;-81
2022/10/23 01:16:05;;;;;;;12.75;5.53;;;;;;;;;;5034006;28;20049;-81
2022/10/23 01:18:51;;;;;;;6.37;5.07;;;;;;;;;;5032630;28;20485;-82
2022/10/23 01:21:24;;;;;;;10.10;5.55;;;;;;;;;;5033744;28;20419;-81
2022/10/23 01:24:03;;;;;;;9.10;5.60;;;;;;;;;;5032525;28;20049;-82
2022/10/23 01:26:44;;;;;;;12.80;6.40;;;;;;;;;;5032201;28;20119;-81
2022/10/23 01:29:28;;;;;;;9.63;4.97;;;;;;;;;;5032390;28;20389;-82
2022/10/23 01:31:58;;;;;;;7.68;5.13;;;;;;;;;;5033417;28;20050;-82
2022/10/23 01:34:30;;;;;;;15.05;5.43;;;;;;;;;;5032158;28;20128;-82
2022/10/23 01:36:58;;;;;;;9.27;5.47;;;;;;;;;;5033236;28;20045;-81
2022/10/23 01:39:35;;;;;;;9.95;5.30;;;;;;;;;;5032189;28;20049;-81
2022/10/23 01:42:11;;;;;;;5.13;4.63;;;;;;;;;;5032992;28;20061;-81
2022/10/23 01:44:41;;;;;;;7.90;4.47;;;;;;;;;;5031810;28;20060;-81
2022/10/23 01:47:09;;;;;;;9.25;5.55;;;;;;;;;;5031866;28;20049;-81
2022/10/23 01:49:38;;;;;;;7.93;5.35;;;;;;;;;;5031913;28;20046;-81
2022/10/23 01:52:07;;;;;;;8.15;5.72;;;;;;;;;;5033944;28;20049;-82
2022/10/23 01:54:36;;;;;;;6.25;4.97;;;;;;;;;;5035035;28;20629;-82
2022/10/23 01:57:04;;;;;;;7.55;4.80;;;;;;;;;;5035008;28;20137;-83
2022/10/23 01:59:34;;;;;;;6.63;4.85;;;;;;;;;;5034586;28;20045;-83
2022/10/23 02:02:02;;;;;;;10.02;4.90;;;;;;;;;;5035678;28;20053;-82
2022/10/23 02:04:40;;;;;;;12.43;4.57;;;;;;;;;;5034069;28;20081;-82
2022/10/23 02:07:08;;;;;;;10.43;4.85;;;;;;;;;;5033725;28;20427;-81
2022/10/23 02:09:36;;;;;;;12.50;4.20;;;;;;;;;;5034773;28;20048;-82
2022/10/23 02:12:07;;;;;;;9.25;5.45;;;;;;;;;;5033189;28;20143;-83
2022/10/23 02:14:42;;;;;;;8.55;5.50;;;;;;;;;;5034156;28;20068;-82
2022/10/23 02:17:23;;;;;;;10.45;5.78;;;;;;;;;;5034756;28;20060;-82
2022/10/23 02:19:54;;;;;;;13.32;6.18;;;;;;;;;;5032774;28;20045;-81
2022/10/23 02:22:24;;;;;;;10.25;5.53;;;;;;;;;;5031540;28;20055;-81
2022/10/23 02:25:01;;;;;;;7.05;5.22;;;;;;;;;;5031141;28;20045;-82
2022/10/23 02:27:36;;;;;;;10.77;5.60;;;;;;;;;;5033322;28;20048;-81
2022/10/23 02:30:06;;;;;;;12.90;5.63;;;;;;;;;;5033770;28;20125;-81
2022/10/23 02:32:34;;;;;;;10.13;5.32;;;;;;;;;;5032386;28;20046;-82
2022/10/23 02:35:01;;;;;;;18.60;5.72;;;;;;;;;;5033085;28;20041;-82
2022/10/23 02:37:28;;;;;;;9.15;4.55;;;;;;;;;;5031609;28;20049;-82
2022/10/23 02:39:56;;;;;;;6.55;4.63;;;;;;;;;;5031846;28;20053;-81
2022/10/23 02:42:30;;;;;;;10.25;5.65;;;;;;;;;;5032660;28;20053;-80
2022/10/23 02:45:05;;;;;;;9.82;5.60;;;;;;;;;;5033473;28;20060;-82
2022/10/23 02:47:35;;;;;;;13.63;5.43;;;;;;;;;;5035571;28;20397;-82
2022/10/23 02:50:18;;;;;;;17.38;5.05;;;;;;;;;;5035613;28;20068;-81
2022/10/23 02:52:52;;;;;;;10.70;5.60;;;;;;;;;;5038059;28;20050;-82
2022/10/23 02:55:35;;;;;;;11.75;5.10;;;;;;;;;;5035858;28;20046;-81
2022/10/23 02:58:08;;;;;;;15.43;6.13;;;;;;;;;;5035588;28;20046;-82
2022/10/23 03:00:37;;;;;;;5.60;4.97;;;;;;;;;;5036568;28;20045;-81
2022/10/23 03:03:08;;;;;;;9.85;5.55;;;;;;;;;;5035589;28;20050;-81
2022/10/23 03:05:37;;;;;;;9.75;5.95;;;;;;;;;;5034809;28;20075;-81
2022/10/23 03:08:05;;;;;;;10.90;6.00;;;;;;;;;;5035377;28;20041;-81
2022/10/23 03:10:32;;;;;;;11.23;5.97;;;;;;;;;;5034748;28;20050;-82
2022/10/23 03:12:59;;;;;;;8.43;4.65;;;;;;;;;;5035040;28;20049;-81
2022/10/23 03:15:27;;;;;;;11.65;5.90;;;;;;;;;;5034659;28;20055;-81
2022/10/23 03:17:54;;;;;;;11.98;6.20;;;;;;;;;;5034704;28;20056;-81
2022/10/23 03:20:21;;;;;;;7.07;5.50;;;;;;;;;;5035026;28;20136;-80
2022/10/23 03:22:48;;;;;;;15.50;5.55;;;;;;;;;;5035625;28;20049;-81
2022/10/23 03:25:15;;;;;;;6.38;5.13;;;;;;;;;;5034633;28;20041;-81
2022/10/23 03:27:43;;;;;;;8.88;6.20;;;;;;;;;;5034654;28;20041;-81
2022/10/23 03:30:10;;;;;;;8.15;5.60;;;;;;;;;;5034536;28;20049;-80
2022/10/23 03:32:37;;;;;;;15.27;6.13;;;;;;;;;;5034211;28;20055;-81
2022/10/23 03:35:05;;;;;;;23.80;6.30;;;;;;;;;;5034325;28;20050;-81
2022/10/23 03:37:32;;;;;;;24.35;7.15;;;;;;;;;;5034315;28;20057;-80
2022/10/23 03:39:59;;;;;;;8.68;5.80;;;;;;;;;;5034391;28;20132;-80
2022/10/23 03:42:26;;;;;;;10.63;6.65;;;;;;;;;;5035130;28;20496;-81
2022/10/23 03:44:53;;;;;;;9.50;6.10;;;;;;;;;;5033849;28;20493;-81
2022/10/23 03:47:21;;;;;;;11.48;5.30;;;;;;;;;;5034957;28;20049;-81
2022/10/23 03:49:48;;;;;;;9.05;5.38;;;;;;;;;;5033946;28;20167;-80
2022/10/23 03:52:15;;;;;;;9.60;6.07;;;;;;;;;;5034200;28;20045;-81
2022/10/23 03:54:42;;;;;;;17.13;7.20;;;;;;;;;;5034994;28;20046;-82
2022/10/23 03:57:09;;;;;;;12.75;5.57;;;;;;;;;;5032811;28;20068;-81
2022/10/23 03:59:37;;;;;;;37.85;8.15;;;;;;;;;;5033627;28;20046;-80
2022/10/23 04:02:04;;;;;;;6.78;5.90;;;;;;;;;;5035072;28;20049;-80
2022/10/23 04:04:31;;;;;;;25.17;7.40;;;;;;;;;;5033459;28;20088;-80
2022/10/23 04:06:58;;;;;;;7.53;6.47;;;;;;;;;;5034974;28;20045;-81
2022/10/23 04:09:26;;;;;;;13.02;7.22;;;;;;;;;;5033862;28;20137;-81
2022/10/23 04:11:55;;;;;;;11.68;7.15;;;;;;;;;;5033655;28;20049;-80
2022/10/23 04:14:22;;;;;;;15.20;6.68;;;;;;;;;;5033403;28;20424;-79
2022/10/23 04:16:49;;;;;;;11.80;6.85;;;;;;;;;;5033543;28;20049;-81
2022/10/23 04:19:16;;;;;;;7.35;5.22;;;;;;;;;;5033535;28;20046;-81
2022/10/23 04:21:44;;;;;;;8.40;4.60;;;;;;;;;;5033294;28;20053;-81
2022/10/23 04:24:11;;;;;;;10.50;4.50;;;;;;;;;;5033260;28;20519;-81
2022/10/23 04:26:38;;;;;;;11.65;5.13;;;;;;;;;;5034182;28;20060;-80
2022/10/23 04:29:05;;;;;;;24.17;6.80;;;;;;;;;;5034339;28;20055;-80
2022/10/23 04:31:32;;;;;;;13.82;6.50;;;;;;;;;;5033317;28;20052;-80
2022/10/23 04:34:00;;;;;;;8.07;6.22;;;;;;;;;;5034370;28;20416;-81
2022/10/23 04:36:27;;;;;;;8.30;5.47;;;;;;;;;;5033106;28;20053;-80
2022/10/23 04:38:54;;;;;;;13.27;6.70;;;;;;;;;;5033243;28;20045;-80
2022/10/23 04:41:21;;;;;;;13.73;5.55;;;;;;;;;;5033978;28;20053;-80
2022/10/23 04:43:49;;;;;;;8.48;5.57;;;;;;;;;;5032923;28;20046;-81
2022/10/23 04:46:16;;;;;;;21.55;6.28;;;;;;;;;;5032834;28;20052;-81
2022/10/23 04:48:43;;;;;;;7.22;5.60;;;;;;;;;;5034040;28;20136;-80
2022/10/23 04:51:10;;;;;;;6.68;5.45;;;;;;;;;;5032905;28;20048;-80
2022/10/23 04:53:37;;;;;;;32.83;7.18;;;;;;;;;;5032685;28;20135;-80
2022/10/23 04:56:05;;;;;;;6.05;5.45;;;;;;;;;;5032506;28;20045;-81
2022/10/23 04:58:32;;;;;;;19.83;5.50;;;;;;;;;;5033960;28;20048;-80
2022/10/23 05:00:59;;;;;;;7.43;5.10;;;;;;;;;;5032692;28;20550;-80
2022/10/23 05:03:27;;;;;;;14.48;5.95;;;;;;;;;;5032637;28;20046;-80
2022/10/23 05:05:55;;;;;;;37.00;6.43;;;;;;;;;;5032571;28;20049;-80
2022/10/23 05:08:23;;;;;;;7.07;5.53;;;;;;;;;;5032152;28;20504;-80
2022/10/23 05:10:50;;;;;;;5.05;4.55;;;;;;;;;;5033545;28;20054;-80
2022/10/23 05:13:18;;;;;;;5.80;3.55;;;;;;;;;;5032681;28;20056;-81
2022/10/23 05:15:46;;;;;;;18.27;5.03;;;;;;;;;;5032117;28;20136;-80
2022/10/23 05:18:28;;;;;;;10.82;5.95;;;;;;;;;;5032508;28;20053;-80
2022/10/23 05:20:58;;;;;;;5.85;5.07;;;;;;;;;;5032175;28;20049;-79
2022/10/23 05:23:26;;;;;;;14.30;6.03;;;;;;;;;;5032175;28;20423;-80
2022/10/23 05:25:53;;;;;;;14.25;7.07;;;;;;;;;;5032260;28;20049;-80
2022/10/23 05:28:21;;;;;;;4.55;4.00;;;;;;;;;;5032213;28;20056;-80
2022/10/23 05:30:48;;;;;;;10.65;4.40;;;;;;;;;;5033181;28;20053;-80
2022/10/23 05:33:15;;;;;;;8.25;4.45;;;;;;;;;;5032172;28;20049;-80
2022/10/23 05:35:44;;;;;;;8.07;4.05;;;;;;;;;;5031959;28;20528;-82
2022/10/23 05:38:11;;;;;;;6.07;4.00;;;;;;;;;;5033398;28;20052;-81
2022/10/23 05:40:38;;;;;;;3.65;3.35;;;;;;;;;;5031795;28;20057;-81
2022/10/23 05:43:10;;;;;;;4.47;3.40;;;;;;;;;;5031953;28;20061;-82
2022/10/23 05:45:38;;;;;;;4.40;3.20;;;;;;;;;;5031767;28;20050;-80
2022/10/23 05:48:05;;;;;;;4.45;3.33;;;;;;;;;;5032908;28;20381;-80
2022/10/23 05:50:42;;;;;;;5.63;4.45;;;;;;;;;;5031948;28;20049;-81
2022/10/23 05:53:10;;;;;;;4.90;3.90;;;;;;;;;;5031923;28;20500;-81
2022/10/23 05:55:37;;;;;;;7.68;5.55;;;;;;;;;;5031416;28;20507;-81
2022/10/23 05:58:04;;;;;;;16.98;4.57;;;;;;;;;;5032913;28;20060;-81
2022/10/23 06:00:31;;;;;;;3.65;3.40;;;;;;;;;;5032656;28;20057;-81
2022/10/23 06:02:59;;;;;;;5.00;3.65;;;;;;;;;;5032905;28;20053;-81
2022/10/23 06:05:27;;;;;;;5.85;3.45;;;;;;;;;;5031563;28;20053;-81
2022/10/23 06:07:58;;;;;;;4.90;4.40;;;;;;;;;;5031570;28;20049;-82
2022/10/23 06:10:26;;;;;;;3.72;3.45;;;;;;;;;;5031877;28;20049;-82
2022/10/23 06:12:53;;;;;;;7.60;4.97;;;;;;;;;;5031611;28;20053;-81
2022/10/23 06:15:20;;;;;;;11.18;4.45;;;;;;;;;;5031773;28;20041;-83
2022/10/23 06:17:47;;;;;;;5.25;4.30;;;;;;;;;;5031830;28;20084;-82
2022/10/23 06:20:14;;;;;;;6.25;4.40;;;;;;;;;;5031091;28;20518;-82
2022/10/23 06:22:42;;;;;;;4.45;3.83;;;;;;;;;;5031474;28;20431;-84
2022/10/23 06:25:09;;;;;;;4.93;4.40;;;;;;;;;;5032448;28;20104;-81
2022/10/23 06:27:36;;;;;;;6.60;4.78;;;;;;;;;;5030910;28;20041;-82
2022/10/23 06:30:06;;;;;;;4.53;4.22;;;;;;;;;;5032670;28;20045;-82
2022/10/23 06:32:33;;;;;;;6.80;5.10;;;;;;;;;;5031482;28;20053;-81
2022/10/23 06:35:00;;;;;;;10.85;6.20;;;;;;;;;;5031384;28;20413;-80
2022/10/23 06:37:27;;;;;;;11.07;5.55;;;;;;;;;;5031222;28;20431;-81
2022/10/23 06:39:54;;;;;;;7.10;6.40;;;;;;;;;;5032369;28;20420;-80
2022/10/23 06:42:21;;;;;;;8.48;6.57;;;;;;;;;;5032056;28;20409;-81
2022/10/23 06:44:49;;;;;;;8.82;5.85;;;;;;;;;;5031082;28;20515;-81
2022/10/23 06:47:16;;;;;;;11.55;6.45;;;;;;;;;;5031201;28;20049;-80
2022/10/23 06:49:43;;;;;;;8.00;5.72;;;;;;;;;;5032251;28;20124;-81
2022/10/23 06:52:10;;;;;;;10.85;6.70;;;;;;;;;;5031111;28;20500;-80
2022/10/23 06:54:54;;;;;;;8.18;7.22;;;;;;;;;;5032021;28;20041;-81
2022/10/23 06:57:21;;;;;;;19.33;12.18;;;;;;;;;;5030980;28;20049;-80
2022/10/23 06:59:48;;;;;;;14.02;10.18;;;;;;;;;;5032449;28;20416;-81
2022/10/23 07:02:16;;;;;;;10.50;9.27;;;;;;;;;;5031059;28;20053;-79
2022/10/23 07:04:43;;;;;;;7.30;6.57;;;;;;;;;;5031771;28;20054;-81
2022/10/23 07:07:10;;;;;;;5.25;4.78;;;;;;;;;;5032192;28;20431;-80
2022/10/23 07:09:37;;;;;;;4.63;4.32;;;;;;;;;;5031843;28;20212;-80
2022/10/23 07:12:04;;;;;;;5.95;4.10;;;;;;;;;;5031102;28;20056;-80
2022/10/23 07:14:31;;;;;;;5.53;5.03;;;;;;;;;;5031823;28;20492;-81
2022/10/23 07:16:59;;;;;;;7.90;4.85;;;;;;;;;;5030902;28;20049;-81
2022/10/23 07:19:26;;;;;;;6.80;5.28;;;;;;;;;;5030728;28;20520;-80
2022/10/23 07:21:53;;;;;;;11.82;5.03;;;;;;;;;;5030903;28;20057;-81
2022/10/23 07:24:20;;;;;;;9.15;5.63;;;;;;;;;;5031040;28;20082;-80
2022/10/23 07:26:47;;;;;;;6.60;6.00;;;;;;;;;;5031735;28;20049;-80
2022/10/23 07:29:20;;;;;;;3.85;3.58;;;;;;;;;;5032926;28;20053;-82
2022/10/23 07:31:47;;;;;;;7.50;4.50;;;;;;;;;;5034127;28;20045;-79
2022/10/23 07:34:14;;;;;;;5.97;4.50;;;;;;;;;;5034746;28;20077;-80
2022/10/23 07:36:41;;;;;;;6.55;5.90;;;;;;;;;;5034382;28;20049;-80
2022/10/23 07:39:08;;;;;;;10.02;8.07;;;;;;;;;;5034480;28;20053;-80
2022/10/23 07:41:36;;;;;;;8.10;6.93;;;;;;;;;;5034214;28;20053;-82
2022/10/23 07:44:03;;;;;;;15.63;10.77;;;;;;;;;;5035312;28;20046;-83
2022/10/23 07:46:30;;;;;;;38.55;19.60;;;;;;;;;;5035988;28;20046;-84
2022/10/23 07:48:57;;;;;;;24.15;15.38;;;;;;;;;;5035627;28;20057;-82
2022/10/23 07:51:24;;;;;;;34.70;26.48;;;;;;;;;;5035654;28;20416;-82
2022/10/23 07:53:52;;;;;;;12.88;8.00;;;;;;;;;;5037262;28;20041;-84
2022/10/23 07:56:23;;;;;;;7.82;6.95;;;;;;;;;;5037136;28;20443;-84
2022/10/23 07:58:52;;;;;;;12.27;9.25;;;;;;;;;;5036185;28;20068;-82
2022/10/23 08:01:23;;;;;;;5.78;5.18;;;;;;;;;;5036700;28;20053;-85
2022/10/23 08:03:50;;;;;;;6.35;5.13;;;;;;;;;;5037665;28;20415;-82
2022/10/23 08:06:17;;;;;;;4.00;3.63;;;;;;;;;;5036820;28;20052;-82
2022/10/23 08:08:44;;;;;;;4.55;3.65;;;;;;;;;;5037179;28;20049;-84
2022/10/23 08:11:19;;;;;;;4.50;3.53;;;;;;;;;;5035828;28;20041;-84
2022/10/23 08:13:46;;;;;;;2.13;1.80;;;;;;;;;;5035651;28;20053;-85
2022/10/23 08:16:13;;;;;;;1.85;1.63;;;;;;;;;;5036457;28;20049;-84
2022/10/23 08:18:41;;;;;;;4.47;2.20;;;;;;;;;;5035363;28;20053;-81
2022/10/23 08:21:09;;;;;;;3.33;2.08;;;;;;;;;;5037197;28;20067;-83
2022/10/23 08:23:36;;;;;;;2.03;1.63;;;;;;;;;;5035937;28;20050;-82
2022/10/23 08:26:04;;;;;;;2.75;1.95;;;;;;;;;;5037082;28;20045;-84
2022/10/23 08:28:32;;;;;;;1.77;1.67;;;;;;;;;;5035770;28;20049;-83
2022/10/23 08:30:59;;;;;;;1.88;1.77;;;;;;;;;;5035433;28;20053;-84
2022/10/23 08:33:26;;;;;;;11.10;8.82;;;;;;;;;;5035384;28;20073;-84
2022/10/23 08:35:53;;;;;;;4.38;2.30;;;;;;;;;;5035579;28;20519;-85
2022/10/23 08:38:21;;;;;;;1.90;1.80;;;;;;;;;;5035464;28;20060;-85
2022/10/23 08:40:48;;;;;;;3.05;2.10;;;;;;;;;;5036531;28;20053;-85
2022/10/23 08:43:19;;;;;;;1.80;1.70;;;;;;;;;;5033905;28;20420;-85
2022/10/23 08:45:59;;;;;;;2.13;1.90;;;;;;;;;;5035268;28;20045;-83
2022/10/23 08:48:37;;;;;;;2.03;1.45;;;;;;;;;;5034540;28;20084;-83
2022/10/23 08:51:07;;;;;;;3.10;1.67;;;;;;;;;;5036548;28;20128;-82
2022/10/23 08:53:39;;;;;;;1.98;1.60;;;;;;;;;;5034518;28;20053;-82
2022/10/23 08:56:12;;;;;;;2.40;1.50;;;;;;;;;;5034529;28;20512;-82
2022/10/23 08:58:44;;;;;;;2.47;1.05;;;;;;;;;;5034612;28;20415;-83
2022/10/23 09:01:32;;;;;;;1.30;1.13;;;;;;;;;;5033442;28;20056;-82
2022/10/23 09:04:00;;;;;;;7.00;6.40;;;;;;;;;;5033105;28;20131;-85
2022/10/23 09:06:50;;;;;;;1.45;1.35;;;;;;;;;;5033301;28;20535;-83
2022/10/23 09:09:37;;;;;;;1.10;1.00;;;;;;;;;;5015466;28;20493;-83
2022/10/23 09:12:11;;;;;;;3.30;0.95;;;;;;;;;;5034399;28;20055;-83
2022/10/23 09:14:58;;;;;;;1.65;0.80;;;;;;;;;;5033361;28;20444;-84
2022/10/23 09:17:37;;;;;;;3.50;0.80;;;;;;;;;;5033258;28;20485;-82
2022/10/23 09:20:13;;;;;;;1.17;0.75;;;;;;;;;;5035109;28;20128;-83
2022/10/23 09:22:41;;;;;;;2.25;0.80;;;;;;;;;;5033746;28;20053;-83
2022/10/23 09:25:10;;;;;;;3.80;0.82;;;;;;;;;;5035316;28;20049;-82
2022/10/23 09:27:37;;;;;;;1.15;0.80;;;;;;;;;;5033876;28;20050;-84
2022/10/23 09:30:05;;;;;;;4.25;0.80;;;;;;;;;;5034025;28;20049;-84
2022/10/23 09:32:34;;;;;;;0.80;0.70;;;;;;;;;;5035121;28;20045;-83
2022/10/23 09:35:01;;;;;;;0.73;0.70;;;;;;;;;;5033554;28;20061;-82
2022/10/23 09:37:29;;;;;;;0.45;0.45;;;;;;;;;;5033437;28;20050;-85
2022/10/23 09:40:23;;;;;;;1.73;0.90;;;;;;;;;;5034751;28;20045;-83
2022/10/23 09:42:58;;;;;;;1.17;0.80;;;;;;;;;;5027491;28;20049;-88
2022/10/23 09:45:30;;;;;;;2.83;1.35;;;;;;;;;;5035481;28;20053;-82
2022/10/23 09:48:24;;;;;;;0.50;0.50;;;;;;;;;;5034211;28;20148;-84
2022/10/23 09:51:00;;;;;;;1.30;0.70;;;;;;;;;;5032842;28;20049;-85
2022/10/23 09:53:37;;;;;;;0.40;0.40;;;;;;;;;;5038980;28;20051;-83
2022/10/23 09:56:06;;;;;;;1.38;0.60;;;;;;;;;;5040195;28;20049;-83
2022/10/23 09:58:36;;;;;;;0.55;0.50;;;;;;;;;;5041515;28;20053;-83
2022/10/23 10:01:03;;;;;;;0.70;0.70;;;;;;;;;;5040029;28;20615;-84
2022/10/23 10:03:31;;;;;;;0.70;0.50;;;;;;;;;;5042024;28;20583;-83
2022/10/23 10:06:00;;;;;;;1.00;0.60;;;;;;;;;;5040269;28;20049;-84
2022/10/23 10:08:43;;;;;;;1.10;0.70;;;;;;;;;;5036888;28;20045;-85
2022/10/23 10:11:17;;;;;;;1.17;0.50;;;;;;;;;;5034276;28;20055;-83
2022/10/23 10:13:52;;;;;;;4.43;0.70;;;;;;;;;;5033527;28;20045;-83
2022/10/23 10:16:27;;;;;;;1.73;0.60;;;;;;;;;;5033750;28;20519;-83
2022/10/23 10:18:59;;;;;;;2.38;0.70;;;;;;;;;;5033659;28;20045;-84
2022/10/23 10:21:31;;;;;;;1.10;0.60;;;;;;;;;;5035067;28;20049;-83
2022/10/23 10:24:02;;;;;;;2.67;0.80;;;;;;;;;;5037534;28;20049;-83
2022/10/23 10:26:29;;;;;;;2.20;0.47;;;;;;;;;;5036705;28;20049;-84
2022/10/23 10:29:11;;;;;;;0.55;0.55;;;;;;;;;;5035597;28;20583;-83
2022/10/23 10:31:47;;;;;;;1.13;0.70;;;;;;;;;;5037088;28;20053;-82
2022/10/23 10:34:22;;;;;;;1.70;0.82;;;;;;;;;;5036993;28;20563;-84
2022/10/23 10:36:52;;;;;;;0.73;0.73;;;;;;;;;;5032823;28;20064;-82
2022/10/23 10:39:22;;;;;;;2.83;0.77;;;;;;;;;;5031623;28;20479;-82
2022/10/23 10:42:10;;;;;;;3.40;0.68;;;;;;;;;;5032474;28;20505;-82
2022/10/23 10:44:46;;;;;;;1.70;0.80;;;;;;;;;;5025458;28;20057;-83
2022/10/23 10:47:14;;;;;;;1.33;0.68;;;;;;;;;;5034608;28;20108;-83
2022/10/23 10:49:50;;;;;;;0.55;0.55;;;;;;;;;;5032355;28;20053;-82
2022/10/23 10:52:29;;;;;;;0.95;0.75;;;;;;;;;;5034178;28;20137;-85
2022/10/23 10:55:11;;;;;;;0.77;0.60;;;;;;;;;;5032623;28;20523;-84
2022/10/23 10:57:39;;;;;;;0.77;0.70;;;;;;;;;;5032893;28;20052;-83
2022/10/23 11:00:14;;;;;;;1.60;0.80;;;;;;;;;;5033305;28;20156;-82
2022/10/23 11:02:44;;;;;;;1.95;0.80;;;;;;;;;;5033417;28;20049;-83
2022/10/23 11:05:17;;;;;;;3.05;0.80;;;;;;;;;;5032694;28;20052;-85
2022/10/23 11:07:52;;;;;;;0.75;0.75;;;;;;;;;;5036603;28;20497;-84
2022/10/23 11:10:20;;;;;;;0.95;0.85;;;;;;;;;;5036320;28;20622;-83
2022/10/23 11:12:48;;;;;;;1.70;0.88;;;;;;;;;;5036433;28;20057;-82
2022/10/23 11:15:17;;;;;;;4.60;1.05;;;;;;;;;;5036138;28;20576;-85
2022/10/23 11:17:47;;;;;;;1.67;1.00;;;;;;;;;;5036602;28;20046;-84
2022/10/23 11:20:33;;;;;;;2.50;0.80;;;;;;;;;;5036920;28;20436;-84
2022/10/23 11:23:08;;;;;;;1.95;0.90;;;;;;;;;;5036557;28;20054;-83
2022/10/23 11:25:54;;;;;;;0.73;0.73;;;;;;;;;;5036256;28;20056;-83
2022/10/23 11:28:21;;;;;;;0.93;0.70;;;;;;;;;;5036253;28;20049;-85
2022/10/23 11:30:54;;;;;;;0.70;0.70;;;;;;;;;;5036687;28;20053;-83
2022/10/23 11:33:28;;;;;;;1.08;0.98;;;;;;;;;;5036736;28;20045;-83
2022/10/23 11:36:05;;;;;;;4.00;1.10;;;;;;;;;;5036342;28;20053;-84
2022/10/23 11:38:34;;;;;;;2.50;1.00;;;;;;;;;;5036565;28;20492;-84
2022/10/23 11:41:03;;;;;;;1.08;1.02;;;;;;;;;;5036527;28;20071;-83
2022/10/23 11:43:35;;;;;;;3.22;0.80;;;;;;;;;;5037714;28;20133;-85
2022/10/23 11:46:28;;;;;;;0.80;0.80;;;;;;;;;;5036143;28;20064;-83
2022/10/23 11:48:56;;;;;;;4.85;0.90;;;;;;;;;;5036685;28;20045;-83
2022/10/23 11:51:26;;;;;;;1.30;1.00;;;;;;;;;;5036864;28;20427;-84
2022/10/23 11:54:04;;;;;;;2.35;1.00;;;;;;;;;;5039328;28;20514;-82
2022/10/23 11:56:33;;;;;;;2.95;1.13;;;;;;;;;;5036720;28;20045;-83
2022/10/23 11:59:17;;;;;;;7.50;1.10;;;;;;;;;;5036097;28;20107;-83
2022/10/23 12:01:45;;;;;;;2.70;0.90;;;;;;;;;;5035357;28;20060;-84
2022/10/23 12:04:12;;;;;;;1.85;0.98;;;;;;;;;;5036920;28;20475;-85
2022/10/23 12:06:42;;;;;;;1.27;0.90;;;;;;;;;;5035484;28;20051;-84
2022/10/23 12:09:24;;;;;;;1.33;1.20;;;;;;;;;;5035254;28;20045;-83
2022/10/23 12:12:03;;;;;;;2.65;1.30;;;;;;;;;;5035681;28;20132;-82
2022/10/23 12:14:30;;;;;;;2.03;1.52;;;;;;;;;;5036015;28;20053;-84
2022/10/23 12:16:57;;;;;;;4.35;1.15;;;;;;;;;;5037790;28;20046;-84
2022/10/23 12:19:26;;;;;;;1.25;0.77;;;;;;;;;;5037534;28;20053;-83
2022/10/23 12:21:57;;;;;;;1.83;0.82;;;;;;;;;;5039480;28;20129;-83
2022/10/23 12:24:38;;;;;;;2.30;1.00;;;;;;;;;;5038421;28;20428;-85
2022/10/23 12:27:05;;;;;;;0.93;0.82;;;;;;;;;;5042157;28;20113;-83
2022/10/23 12:29:56;;;;;;;2.15;1.10;;;;;;;;;;5037899;28;20064;-85
2022/10/23 12:32:42;;;;;;;1.00;1.00;;;;;;;;;;5036646;28;20053;-85
2022/10/23 12:35:29;;;;;;;2.08;0.85;;;;;;;;;;5036331;28;20128;-85
2022/10/23 12:38:08;;;;;;;1.65;1.33;;;;;;;;;;5039537;28;20052;-84
2022/10/23 12:40:35;;;;;;;1.17;1.08;;;;;;;;;;5036795;28;20099;-85
2022/10/23 12:43:02;;;;;;;4.80;1.10;;;;;;;;;;5037285;28;20051;-86
2022/10/23 12:45:37;;;;;;;1.88;1.00;;;;;;;;;;5037897;28;20049;-83
2022/10/23 12:48:04;;;;;;;1.08;1.00;;;;;;;;;;5037335;28;20045;-83
2022/10/23 12:50:33;;;;;;;1.38;1.08;;;;;;;;;;5036936;28;20503;-85
2022/10/23 12:53:02;;;;;;;4.00;1.25;;;;;;;;;;5037920;28;20049;-84
2022/10/23 12:55:31;;;;;;;2.78;0.93;;;;;;;;;;5037210;28;20516;-83
2022/10/23 12:58:02;;;;;;;1.83;0.90;;;;;;;;;;5037399;28;20105;-84
2022/10/23 13:00:29;;;;;;;1.80;1.10;;;;;;;;;;5036232;28;20056;-85
2022/10/23 13:03:00;;;;;;;1.90;1.10;;;;;;;;;;5042278;28;20060;-85
2022/10/23 13:05:28;;;;;;;2.60;1.08;;;;;;;;;;5044666;28;20132;-86
2022/10/23 13:07:57;;;;;;;2.63;0.90;;;;;;;;;;5043130;28;20055;-84
2022/10/23 13:10:24;;;;;;;1.20;1.10;;;;;;;;;;5039247;28;20100;-84
2022/10/23 13:12:54;;;;;;;2.95;1.20;;;;;;;;;;5040184;28;20162;-85
2022/10/23 13:15:22;;;;;;;1.05;0.95;;;;;;;;;;5036738;28;20049;-84
2022/10/23 13:17:55;;;;;;;10.57;1.30;;;;;;;;;;5037462;28;20124;-83
2022/10/23 13:20:26;;;;;;;2.67;0.90;;;;;;;;;;5037391;28;20049;-84
2022/10/23 13:22:59;;;;;;;2.17;1.08;;;;;;;;;;5037503;28;20415;-85
2022/10/23 13:25:34;;;;;;;1.95;1.10;;;;;;;;;;5037566;28;20057;-83
2022/10/23 13:28:08;;;;;;;2.85;1.17;;;;;;;;;;5039678;28;20049;-85
2022/10/23 13:30:41;;;;;;;1.83;1.30;;;;;;;;;;5038671;28;20099;-84
2022/10/23 13:33:20;;;;;;;1.48;0.80;;;;;;;;;;5040875;28;20465;-84
2022/10/23 13:35:55;;;;;;;1.20;1.10;;;;;;;;;;5038215;28;20424;-84
2022/10/23 13:38:32;;;;;;;3.35;0.93;;;;;;;;;;5037984;28;20041;-83
2022/10/23 13:41:01;;;;;;;2.80;1.20;;;;;;;;;;5038265;28;20420;-83
2022/10/23 13:43:29;;;;;;;4.22;1.20;;;;;;;;;;5035873;28;20049;-85
2022/10/23 13:45:57;;;;;;;2.15;1.33;;;;;;;;;;5035096;28;20052;-83
2022/10/23 13:48:25;;;;;;;4.35;1.77;;;;;;;;;;5032053;28;20082;-84
2022/10/23 13:50:52;;;;;;;5.43;1.63;;;;;;;;;;5032428;28;20042;-83
2022/10/23 13:53:19;;;;;;;2.10;1.20;;;;;;;;;;5033393;28;20049;-82
2022/10/23 13:55:48;;;;;;;1.40;1.25;;;;;;;;;;5032490;28;20132;-83
2022/10/23 13:58:18;;;;;;;3.10;1.08;;;;;;;;;;5034211;28;20055;-84
2022/10/23 14:00:47;;;;;;;1.20;1.02;;;;;;;;;;5034381;28;20053;-83
2022/10/23 14:03:14;;;;;;;3.47;1.10;;;;;;;;;;5033234;28;20052;-85
2022/10/23 14:05:41;;;;;;;2.53;1.20;;;;;;;;;;5033619;28;20054;-84
2022/10/23 14:08:08;;;;;;;1.30;1.20;;;;;;;;;;5033119;28;20054;-83
2022/10/23 14:10:35;;;;;;;2.75;0.90;;;;;;;;;;5032881;28;20053;-84
2022/10/23 14:13:03;;;;;;;3.15;1.17;;;;;;;;;;5032911;28;20132;-84
2022/10/23 14:15:30;;;;;;;2.80;1.25;;;;;;;;;;5032663;28;20056;-84
2022/10/23 14:17:57;;;;;;;2.17;1.30;;;;;;;;;;5016943;28;20042;-83
2022/10/23 14:20:27;;;;;;;3.42;1.25;;;;;;;;;;5032706;28;20053;-83
2022/10/23 14:22:55;;;;;;;1.77;1.33;;;;;;;;;;5034820;28;20510;-85
2022/10/23 14:25:22;;;;;;;1.00;1.00;;;;;;;;;;5034516;28;20060;-84
2022/10/23 14:27:49;;;;;;;1.30;1.10;;;;;;;;;;5034984;28;20056;-84
2022/10/23 14:30:17;;;;;;;10.77;1.05;;;;;;;;;;5035288;28;20592;-84
2022/10/23 14:32:44;;;;;;;1.30;0.90;;;;;;;;;;5034362;28;20051;-83
2022/10/23 14:35:12;;;;;;;3.17;0.98;;;;;;;;;;5035031;28;20479;-83
2022/10/23 14:37:39;;;;;;;8.13;1.50;;;;;;;;;;5036910;28;20567;-83
2022/10/23 14:40:07;;;;;;;0.80;0.80;;;;;;;;;;5034673;28;20080;-85
2022/10/23 14:42:34;;;;;;;2.50;0.90;;;;;;;;;;5039040;28;20061;-83
2022/10/23 14:45:01;;;;;;;1.35;1.25;;;;;;;;;;5038841;28;20049;-84
2022/10/23 14:47:29;;;;;;;4.85;1.45;;;;;;;;;;5038440;28;20067;-83
2022/10/23 14:49:56;;;;;;;4.32;1.50;;;;;;;;;;5040302;28;20052;-86
2022/10/23 14:52:24;;;;;;;1.20;1.10;;;;;;;;;;5038150;28;20046;-83
2022/10/23 14:54:54;;;;;;;3.25;1.00;;;;;;;;;;5037708;28;20059;-84
2022/10/23 14:57:21;;;;;;;5.50;3.20;;;;;;;;;;5042614;28;20052;-84